Milesovka, Czech Republic
Current Conditions -  °F | °C
As of 5:30 PM on Friday 19 Dec 2014 (Local Time) from LKPR Reporting Station
Broken Clouds Broken Clouds  
Wind Chill: 50°   Ceiling: 3000
Heat Index: 50°   Visibility: 6mi
Dew Point: 43°   Wind: 24mph
Humidity: 76%   Direction: 240°WSW
Pressure: 29.85"   Gusts: NA
Location:  50.55°N, 13.93°E
Report Text: LKPR 191530Z 24021KT 9999 BKN030 10/06 Q1011 NOSIG
Loading
Personal Weather Stations






























Interactive Weather Map New forecast layout! Learn more

10-Day Weather Forecast

Advertisements
Track Severe Weather on mobile